createdAt,value
2022-09-28T00:00:39.009Z,12.90
2022-09-28T00:03:06.925Z,12.80
2022-09-28T00:05:34.852Z,12.90
2022-09-28T00:08:02.935Z,12.80
2022-09-28T00:10:30.892Z,12.90
2022-09-28T00:13:01.354Z,12.90
2022-09-28T00:15:29.262Z,12.90
2022-09-28T00:17:57.386Z,12.90
2022-09-28T00:20:25.548Z,12.90
2022-09-28T00:22:53.665Z,12.90
2022-09-28T00:25:22.031Z,12.90
2022-09-28T00:27:51.427Z,12.90
2022-09-28T00:30:20.585Z,12.90
2022-09-28T00:32:48.409Z,12.90
2022-09-28T00:35:16.321Z,12.90
2022-09-28T00:37:44.134Z,12.90
2022-09-28T00:40:12.022Z,12.90
2022-09-28T00:42:42.773Z,12.90
2022-09-28T00:45:11.143Z,12.90
2022-09-28T00:47:49.438Z,12.90
2022-09-28T00:50:26.067Z,12.90
2022-09-28T00:52:59.180Z,12.90
2022-09-28T00:55:32.677Z,12.90
2022-09-28T00:58:04.386Z,12.90
2022-09-28T01:00:32.699Z,12.90
2022-09-28T01:03:02.229Z,12.90
2022-09-28T01:05:30.184Z,12.90
2022-09-28T01:07:58.650Z,12.90
2022-09-28T01:10:26.504Z,12.90
2022-09-28T01:12:56.374Z,12.90
2022-09-28T01:15:27.520Z,12.90
2022-09-28T01:18:08.589Z,12.90
2022-09-28T01:20:52.441Z,12.90
2022-09-28T01:23:49.568Z,12.90
2022-09-28T01:26:44.498Z,12.90
2022-09-28T01:29:20.229Z,12.80
2022-09-28T01:31:52.208Z,12.80
2022-09-28T01:34:26.782Z,12.80
2022-09-28T01:36:59.059Z,12.80
2022-09-28T01:39:32.253Z,12.80
2022-09-28T01:42:07.184Z,12.80
2022-09-28T01:44:39.883Z,12.80
2022-09-28T01:47:11.321Z,12.80
2022-09-28T01:49:43.161Z,12.80
2022-09-28T01:52:16.917Z,12.80
2022-09-28T01:54:50.697Z,12.70
2022-09-28T01:57:23.766Z,12.80
2022-09-28T01:59:59.721Z,12.70
2022-09-28T02:02:32.630Z,12.70
2022-09-28T02:05:05.953Z,12.80
2022-09-28T02:07:39.323Z,12.70
2022-09-28T02:10:13.613Z,12.70
2022-09-28T02:12:47.842Z,12.80
2022-09-28T02:15:20.089Z,12.70
2022-09-28T02:17:48.537Z,12.80
2022-09-28T02:20:17.217Z,12.70
2022-09-28T02:22:48.863Z,12.80
2022-09-28T02:25:25.937Z,12.80
2022-09-28T02:27:59.565Z,12.80
2022-09-28T02:30:27.847Z,12.70
2022-09-28T02:32:59.885Z,12.70
2022-09-28T02:35:27.916Z,12.70
2022-09-28T02:37:55.929Z,12.70
2022-09-28T02:40:29.763Z,12.60
2022-09-28T02:43:04.749Z,12.60
2022-09-28T02:45:47.512Z,12.50
2022-09-28T02:48:43.030Z,12.50
2022-09-28T02:51:21.675Z,12.50
2022-09-28T02:54:04.301Z,12.40
2022-09-28T02:56:45.505Z,12.40
2022-09-28T02:59:26.715Z,12.30
2022-09-28T03:02:02.672Z,12.30
2022-09-28T03:04:38.643Z,12.20
2022-09-28T03:07:10.778Z,12.20
2022-09-28T03:09:44.146Z,12.20
2022-09-28T03:12:15.257Z,12.10
2022-09-28T03:14:44.509Z,12.10
2022-09-28T03:17:12.361Z,12.00
2022-09-28T03:19:40.275Z,12.00
2022-09-28T03:22:08.061Z,12.00
2022-09-28T03:24:35.933Z,12.00
2022-09-28T03:27:04.020Z,12.00
2022-09-28T03:29:33.068Z,12.00
2022-09-28T03:32:02.640Z,12.00
2022-09-28T03:34:30.481Z,12.00
2022-09-28T03:36:58.306Z,12.00
2022-09-28T03:39:26.157Z,12.00
2022-09-28T03:41:53.972Z,12.00
2022-09-28T03:44:22.083Z,12.00
2022-09-28T03:46:49.880Z,12.00
2022-09-28T03:49:19.028Z,12.00
2022-09-28T03:51:47.785Z,12.00
2022-09-28T03:54:15.657Z,12.00
2022-09-28T03:56:43.447Z,12.00
2022-09-28T03:59:11.416Z,12.00
2022-09-28T04:01:39.307Z,12.00
2022-09-28T04:04:07.273Z,12.00
2022-09-28T04:06:36.471Z,12.00
2022-09-28T04:09:04.337Z,12.00
2022-09-28T04:11:47.611Z,12.00
2022-09-28T04:14:20.372Z,12.00
2022-09-28T04:16:48.542Z,12.00
2022-09-28T04:19:16.631Z,12.00
2022-09-28T04:21:45.885Z,12.00
2022-09-28T04:24:14.366Z,12.00
2022-09-28T04:26:42.190Z,12.00
2022-09-28T04:29:19.094Z,12.00
2022-09-28T04:31:49.610Z,12.00
2022-09-28T04:34:19.465Z,12.00
2022-09-28T04:36:49.877Z,12.00
2022-09-28T04:39:19.062Z,11.90
2022-09-28T04:41:49.242Z,11.90
2022-09-28T04:44:17.081Z,11.90
2022-09-28T04:46:44.913Z,11.90
2022-09-28T04:49:12.846Z,11.90
2022-09-28T04:51:40.696Z,11.90
2022-09-28T04:54:09.858Z,11.90
2022-09-28T04:56:37.720Z,11.90
2022-09-28T04:59:05.808Z,11.90
2022-09-28T05:01:33.675Z,12.00
2022-09-28T05:04:01.893Z,12.00
2022-09-28T05:06:30.713Z,12.00
2022-09-28T05:08:59.253Z,12.00
2022-09-28T05:11:28.452Z,12.00
2022-09-28T05:13:56.594Z,11.90
2022-09-28T05:16:25.616Z,12.00
2022-09-28T05:18:56.237Z,12.00
2022-09-28T05:21:25.399Z,12.00
2022-09-28T05:23:55.999Z,12.00
2022-09-28T05:26:24.308Z,12.10
2022-09-28T05:28:53.703Z,12.10
2022-09-28T05:31:21.584Z,12.10
2022-09-28T05:33:49.487Z,12.20
2022-09-28T05:36:17.284Z,12.10
2022-09-28T05:38:45.099Z,12.20
2022-09-28T05:41:13.201Z,12.20
2022-09-28T05:43:41.078Z,12.20
2022-09-28T05:46:10.336Z,12.20
2022-09-28T05:48:38.221Z,12.20
2022-09-28T05:51:06.173Z,12.20
2022-09-28T05:53:33.998Z,12.20
2022-09-28T05:56:02.209Z,12.20
2022-09-28T05:58:30.193Z,12.30
2022-09-28T06:00:59.105Z,12.30
2022-09-28T06:03:28.570Z,12.30
2022-09-28T06:05:56.468Z,12.30
2022-09-28T06:08:24.402Z,12.30
2022-09-28T06:10:52.212Z,12.30
2022-09-28T06:13:20.632Z,12.30
2022-09-28T06:15:48.445Z,12.30
2022-09-28T06:18:16.301Z,12.30
2022-09-28T06:20:45.532Z,12.30
2022-09-28T06:23:14.180Z,12.30
2022-09-28T06:25:42.316Z,12.30
2022-09-28T06:28:12.138Z,12.30
2022-09-28T06:30:40.751Z,12.30
2022-09-28T06:33:12.449Z,12.30
2022-09-28T06:35:40.659Z,12.30
2022-09-28T06:38:10.116Z,12.30
2022-09-28T06:40:38.109Z,12.30
2022-09-28T06:43:10.197Z,12.30
2022-09-28T06:45:39.465Z,12.30
2022-09-28T06:48:08.282Z,12.30
2022-09-28T06:50:38.293Z,12.20
2022-09-28T06:53:07.532Z,12.30
2022-09-28T06:55:40.215Z,12.30
2022-09-28T06:58:10.853Z,12.30
2022-09-28T07:00:40.446Z,12.30
2022-09-28T07:03:12.837Z,12.30
2022-09-28T07:05:43.664Z,12.40
2022-09-28T07:08:11.573Z,12.40
2022-09-28T07:10:44.711Z,12.40
2022-09-28T07:13:35.278Z,12.40
2022-09-28T07:16:01.709Z,12.40
2022-09-28T07:18:29.879Z,12.50
2022-09-28T07:20:58.330Z,12.50
2022-09-28T07:23:27.402Z,12.50
2022-09-28T07:25:57.995Z,12.40
2022-09-28T07:28:25.901Z,12.50
2022-09-28T07:30:53.789Z,12.50
2022-09-28T07:33:21.611Z,12.50
2022-09-28T07:35:53.214Z,12.50
2022-09-28T07:38:21.069Z,12.50
2022-09-28T07:41:08.682Z,12.50
2022-09-28T07:43:39.713Z,12.60
2022-09-28T07:46:11.968Z,12.60
2022-09-28T07:48:45.599Z,12.60
2022-09-28T07:51:13.432Z,12.60
2022-09-28T07:53:41.325Z,12.70
2022-09-28T07:56:10.030Z,12.70
2022-09-28T07:58:40.397Z,12.70
2022-09-28T08:01:11.145Z,12.80
2022-09-28T08:03:40.224Z,12.80
2022-09-28T08:06:11.080Z,12.90
2022-09-28T08:08:43.717Z,12.90
2022-09-28T08:11:12.274Z,13.00
2022-09-28T08:13:41.789Z,13.00
2022-09-28T08:16:09.617Z,13.10
2022-09-28T08:18:37.738Z,13.10
2022-09-28T08:21:24.213Z,13.20
2022-09-28T08:23:52.863Z,13.20
2022-09-28T08:26:20.741Z,13.30
2022-09-28T08:28:50.142Z,13.40
2022-09-28T08:31:18.016Z,13.40
2022-09-28T08:33:45.919Z,13.50
2022-09-28T08:36:13.745Z,13.50
2022-09-28T08:38:41.552Z,13.60
2022-09-28T08:41:18.062Z,13.60
2022-09-28T08:44:01.726Z,13.70
2022-09-28T08:46:34.344Z,13.70
2022-09-28T08:49:24.213Z,13.70
2022-09-28T08:51:59.981Z,13.70
2022-09-28T08:54:36.685Z,13.80
2022-09-28T08:57:08.180Z,13.80
2022-09-28T08:59:47.720Z,13.80
2022-09-28T09:02:19.398Z,13.80
2022-09-28T09:04:47.443Z,13.80
2022-09-28T09:07:30.946Z,13.90
2022-09-28T09:10:06.769Z,13.90
2022-09-28T09:12:41.632Z,13.90
2022-09-28T09:15:34.558Z,13.90
2022-09-28T09:18:20.017Z,13.90
2022-09-28T09:20:52.657Z,14.00
2022-09-28T09:23:24.996Z,14.10
2022-09-28T09:25:55.942Z,14.10
2022-09-28T09:28:45.821Z,14.20
2022-09-28T09:31:27.443Z,14.30
2022-09-28T09:34:13.827Z,14.40
2022-09-28T09:36:59.826Z,14.40
2022-09-28T09:39:41.220Z,14.50
2022-09-28T09:42:29.786Z,14.60
2022-09-28T09:45:15.052Z,14.70
2022-09-28T09:47:48.230Z,14.80
2022-09-28T09:50:29.634Z,14.90
2022-09-28T09:53:01.580Z,15.00
2022-09-28T09:55:34.586Z,15.10
2022-09-28T09:58:10.153Z,15.10
2022-09-28T10:00:42.119Z,15.00
2022-09-28T10:03:24.033Z,14.90
2022-09-28T10:05:57.434Z,14.80
2022-09-28T10:08:27.930Z,14.70
2022-09-28T10:11:03.671Z,14.70
2022-09-28T10:13:32.885Z,14.60
2022-09-28T10:16:01.098Z,14.50
2022-09-28T10:18:30.521Z,14.50
2022-09-28T10:20:58.342Z,14.40
2022-09-28T10:23:30.277Z,14.40
2022-09-28T10:26:01.317Z,14.40
2022-09-28T10:28:36.397Z,14.30
2022-09-28T10:31:35.222Z,14.30
2022-09-28T10:34:05.032Z,14.30
2022-09-28T10:36:38.233Z,14.20
2022-09-28T10:39:06.829Z,14.20
2022-09-28T10:41:34.816Z,14.20
2022-09-28T10:44:07.370Z,14.10
2022-09-28T10:46:36.486Z,14.10
2022-09-28T10:49:09.518Z,14.10
2022-09-28T10:51:45.050Z,14.10
2022-09-28T10:54:17.433Z,14.10
2022-09-28T10:56:46.496Z,14.10
2022-09-28T10:59:39.680Z,14.10
2022-09-28T11:02:21.888Z,14.10
2022-09-28T11:04:55.137Z,14.10
2022-09-28T11:07:26.805Z,14.10
2022-09-28T11:09:56.185Z,14.20
2022-09-28T11:12:26.713Z,14.20
2022-09-28T11:15:00.047Z,14.20
2022-09-28T11:17:30.621Z,14.30
2022-09-28T11:20:01.694Z,14.30
2022-09-28T11:22:41.631Z,14.40
2022-09-28T11:25:24.383Z,14.50
2022-09-28T11:28:04.509Z,14.50
2022-09-28T11:30:35.768Z,14.50
2022-09-28T11:33:05.837Z,14.50
2022-09-28T11:35:46.232Z,14.60
2022-09-28T11:38:31.275Z,14.60
2022-09-28T11:41:12.557Z,14.60
2022-09-28T11:43:56.585Z,14.70
2022-09-28T11:46:33.344Z,14.60
2022-09-28T11:49:08.454Z,14.70
2022-09-28T11:51:41.365Z,14.70
2022-09-28T11:54:15.616Z,14.70
2022-09-28T11:56:47.025Z,14.70
2022-09-28T11:59:20.500Z,14.80
2022-09-28T12:01:51.397Z,14.80
2022-09-28T12:04:25.934Z,14.80
2022-09-28T12:06:59.976Z,14.80
2022-09-28T12:09:37.045Z,14.90
2022-09-28T12:12:11.942Z,14.90
2022-09-28T12:14:41.682Z,14.90
2022-09-28T12:17:23.625Z,14.90
2022-09-28T12:19:57.768Z,15.00
2022-09-28T12:22:33.883Z,15.00
2022-09-28T12:25:04.761Z,15.00
2022-09-28T12:27:41.032Z,15.10
2022-09-28T12:30:15.622Z,15.10
2022-09-28T12:32:49.050Z,15.20
2022-09-28T12:35:26.321Z,15.20
2022-09-28T12:38:15.684Z,15.30
2022-09-28T12:40:53.701Z,15.30
2022-09-28T12:43:54.498Z,15.40
2022-09-28T12:46:43.056Z,15.50
2022-09-28T12:52:29.057Z,15.60
2022-09-28T12:55:18.382Z,15.70
2022-09-28T12:57:59.740Z,15.70
2022-09-28T13:00:35.979Z,15.80
2022-09-28T13:03:35.044Z,15.90
2022-09-28T13:06:38.723Z,16.00
2022-09-28T13:09:21.538Z,16.10
2022-09-28T13:12:05.033Z,16.10
2022-09-28T13:14:52.762Z,16.20
2022-09-28T13:17:32.584Z,16.20
2022-09-28T13:20:06.388Z,16.20
2022-09-28T13:22:44.298Z,16.20
2022-09-28T13:25:16.583Z,16.30
2022-09-28T13:27:52.277Z,16.30
2022-09-28T13:30:20.329Z,16.30
2022-09-28T13:32:49.821Z,16.30
2022-09-28T13:35:20.337Z,16.30
2022-09-28T13:37:48.949Z,16.20
2022-09-28T13:40:17.427Z,16.20
2022-09-28T13:43:04.849Z,16.20
2022-09-28T13:45:43.685Z,16.20
2022-09-28T13:48:15.613Z,16.20
2022-09-28T13:51:03.692Z,16.10
2022-09-28T13:53:43.607Z,16.10
2022-09-28T13:56:26.265Z,16.00
2022-09-28T13:58:59.753Z,15.90
2022-09-28T14:01:31.607Z,15.90
2022-09-28T14:04:13.567Z,15.80
2022-09-28T14:06:48.727Z,15.70
2022-09-28T14:09:43.481Z,15.60
2022-09-28T14:12:45.151Z,15.50
2022-09-28T14:15:43.645Z,15.40
2022-09-28T14:18:28.080Z,15.30
2022-09-28T14:21:13.287Z,15.20
2022-09-28T14:24:05.393Z,15.20
2022-09-28T14:27:05.489Z,15.10
2022-09-28T14:29:36.152Z,15.10
2022-09-28T14:32:22.218Z,15.00
2022-09-28T14:34:58.041Z,15.00
2022-09-28T14:37:48.743Z,15.00
2022-09-28T14:40:39.306Z,15.00
2022-09-28T14:43:28.916Z,14.90
2022-09-28T14:46:29.541Z,14.90
2022-09-28T14:49:01.611Z,14.90
2022-09-28T14:51:46.564Z,14.80
2022-09-28T14:54:19.720Z,14.80
2022-09-28T14:56:58.036Z,14.80
2022-09-28T14:59:27.524Z,14.80
2022-09-28T15:02:00.988Z,14.80
2022-09-28T15:04:31.702Z,14.70
2022-09-28T15:07:00.198Z,14.70
2022-09-28T15:09:28.640Z,14.70
2022-09-28T15:12:01.280Z,14.70
2022-09-28T15:14:31.867Z,14.60
2022-09-28T15:17:03.264Z,14.60
2022-09-28T15:19:40.512Z,14.60
2022-09-28T15:22:16.509Z,14.60
2022-09-28T15:24:46.838Z,14.50
2022-09-28T15:27:19.024Z,14.50
2022-09-28T15:29:57.417Z,14.40
2022-09-28T15:32:25.880Z,14.40
2022-09-28T15:34:54.688Z,14.40
2022-09-28T15:37:25.417Z,14.30
2022-09-28T15:39:55.009Z,14.30
2022-09-28T15:42:23.223Z,14.30
2022-09-28T15:45:27.436Z,14.30
2022-09-28T15:48:03.614Z,14.30
2022-09-28T15:50:34.457Z,14.30
2022-09-28T15:53:05.743Z,14.30
2022-09-28T15:55:36.673Z,14.20
2022-09-28T15:58:17.069Z,14.20
2022-09-28T16:00:46.381Z,14.20
2022-09-28T16:03:28.670Z,14.20
2022-09-28T16:06:09.073Z,14.10
2022-09-28T16:08:42.692Z,14.10
2022-09-28T16:11:16.141Z,14.10
2022-09-28T16:13:57.138Z,14.10
2022-09-28T16:16:29.768Z,14.10
2022-09-28T16:19:00.838Z,14.10
2022-09-28T16:21:42.534Z,14.00
2022-09-28T16:24:20.452Z,14.00
2022-09-28T16:26:49.162Z,14.00
2022-09-28T16:29:27.368Z,14.00
2022-09-28T16:31:55.562Z,13.90
2022-09-28T16:34:26.392Z,13.90
2022-09-28T16:36:55.678Z,13.90
2022-09-28T16:39:23.487Z,13.90
2022-09-28T16:41:55.592Z,13.90
2022-09-28T16:44:28.354Z,13.80
2022-09-28T16:46:58.400Z,13.80
2022-09-28T16:49:26.779Z,13.80
2022-09-28T16:51:56.024Z,13.80
2022-09-28T16:54:43.366Z,13.70
2022-09-28T16:57:13.823Z,13.70
2022-09-28T16:59:41.732Z,13.70
2022-09-28T17:02:42.304Z,13.70
2022-09-28T17:05:07.349Z,13.70
2022-09-28T17:07:36.753Z,13.60
2022-09-28T17:10:10.169Z,13.60
2022-09-28T17:12:37.997Z,13.60
2022-09-28T17:15:06.707Z,13.60
2022-09-28T17:17:35.114Z,13.60
2022-09-28T17:20:08.374Z,13.60
2022-09-28T17:22:37.665Z,13.50
2022-09-28T17:25:08.082Z,13.50
2022-09-28T17:27:44.091Z,13.50
2022-09-28T17:30:13.962Z,13.50
2022-09-28T17:32:45.149Z,13.50
2022-09-28T17:35:24.209Z,13.50
2022-09-28T17:37:54.427Z,13.50
2022-09-28T17:40:24.622Z,13.40
2022-09-28T17:42:55.021Z,13.40
2022-09-28T17:45:24.121Z,13.40
2022-09-28T17:47:51.941Z,13.40
2022-09-28T17:50:24.114Z,13.40
2022-09-28T17:52:54.036Z,13.30
2022-09-28T17:55:23.489Z,13.30
2022-09-28T17:57:51.715Z,13.30
2022-09-28T18:00:20.233Z,13.30
2022-09-28T18:02:48.465Z,13.30
2022-09-28T18:05:16.437Z,13.30
2022-09-28T18:07:47.602Z,13.30
2022-09-28T18:10:21.236Z,13.30
2022-09-28T18:12:49.433Z,13.30
2022-09-28T18:15:17.745Z,13.30
2022-09-28T18:17:45.762Z,13.30
2022-09-28T18:20:14.580Z,13.30
2022-09-28T18:22:42.703Z,13.20
2022-09-28T18:25:11.062Z,13.20
2022-09-28T18:27:40.220Z,13.20
2022-09-28T18:30:08.967Z,13.20
2022-09-28T18:32:37.811Z,13.20
2022-09-28T18:35:07.037Z,13.20
2022-09-28T18:37:37.329Z,13.20
2022-09-28T18:40:06.036Z,13.20
2022-09-28T18:42:35.546Z,13.20
2022-09-28T18:45:07.118Z,13.20
2022-09-28T18:47:35.042Z,13.20
2022-09-28T18:50:02.910Z,13.20
2022-09-28T18:52:30.756Z,13.20
2022-09-28T18:54:58.581Z,13.20
2022-09-28T18:57:27.352Z,13.20
2022-09-28T18:59:55.197Z,13.20
2022-09-28T19:02:24.454Z,13.20
2022-09-28T19:04:53.155Z,13.20
2022-09-28T19:07:21.282Z,13.20
2022-09-28T19:09:49.309Z,13.20
2022-09-28T19:12:17.509Z,13.20
2022-09-28T19:14:45.340Z,13.20
2022-09-28T19:17:13.270Z,13.20
2022-09-28T19:19:42.893Z,13.20
2022-09-28T19:22:10.872Z,13.20
2022-09-28T19:24:38.730Z,13.20
2022-09-28T19:27:06.573Z,13.10
2022-09-28T19:29:34.448Z,13.20
2022-09-28T19:32:02.625Z,13.10
2022-09-28T19:34:30.462Z,13.10
2022-09-28T19:37:03.712Z,13.10
2022-09-28T19:39:31.771Z,13.10
2022-09-28T19:42:01.096Z,13.10
2022-09-28T19:44:31.209Z,13.10
2022-09-28T19:47:01.078Z,13.10
2022-09-28T19:49:36.636Z,13.10
2022-09-28T19:52:13.169Z,13.10
2022-09-28T19:54:43.681Z,13.10
2022-09-28T19:57:11.897Z,13.10
2022-09-28T19:59:39.717Z,13.00
2022-09-28T20:02:08.909Z,13.00
2022-09-28T20:04:36.745Z,13.00
2022-09-28T20:07:05.942Z,13.00
2022-09-28T20:09:33.921Z,13.00
2022-09-28T20:12:02.082Z,13.00
2022-09-28T20:14:34.003Z,13.00
2022-09-28T20:17:04.430Z,13.00
2022-09-28T20:19:32.616Z,13.00
2022-09-28T20:22:02.761Z,13.00
2022-09-28T20:24:32.872Z,12.90
2022-09-28T20:27:01.059Z,13.00
2022-09-28T20:29:28.873Z,13.00
2022-09-28T20:31:56.705Z,12.90
2022-09-28T20:34:24.586Z,12.90
2022-09-28T20:36:52.376Z,12.90
2022-09-28T20:39:20.759Z,12.90
2022-09-28T20:41:50.046Z,12.90
2022-09-28T20:44:18.004Z,12.90
2022-09-28T20:46:45.934Z,12.90
2022-09-28T20:49:13.790Z,12.90
2022-09-28T20:51:41.624Z,12.90
2022-09-28T20:54:09.526Z,12.90
2022-09-28T20:56:38.825Z,12.80
2022-09-28T20:59:12.333Z,12.80
2022-09-28T21:01:40.787Z,12.90
2022-09-28T21:04:10.848Z,12.80
2022-09-28T21:06:40.377Z,12.80
2022-09-28T21:09:10.347Z,12.80
2022-09-28T21:11:40.142Z,12.80
2022-09-28T21:14:10.458Z,12.80
2022-09-28T21:16:39.088Z,12.80
2022-09-28T21:19:06.972Z,12.80
2022-09-28T21:21:34.862Z,12.80
2022-09-28T21:24:03.191Z,12.70
2022-09-28T21:26:31.757Z,12.70
2022-09-28T21:29:01.780Z,12.70
2022-09-28T21:31:33.595Z,12.70
2022-09-28T21:34:01.686Z,12.70
2022-09-28T21:36:29.624Z,12.70
2022-09-28T21:38:58.039Z,12.60
2022-09-28T21:41:26.298Z,12.60
2022-09-28T21:43:54.121Z,12.60
2022-09-28T21:46:22.155Z,12.60
2022-09-28T21:48:54.302Z,12.60
2022-09-28T21:51:22.255Z,12.60
2022-09-28T21:53:50.290Z,12.60
2022-09-28T21:56:18.705Z,12.50
2022-09-28T21:58:46.841Z,12.50
2022-09-28T22:01:18.338Z,12.50
2022-09-28T22:03:47.959Z,12.50
2022-09-28T22:06:19.288Z,12.50
2022-09-28T22:08:47.809Z,12.50
2022-09-28T22:11:18.274Z,12.60
2022-09-28T22:13:47.634Z,12.50
2022-09-28T22:16:17.608Z,12.60
2022-09-28T22:18:46.682Z,12.60
2022-09-28T22:21:17.567Z,12.60
2022-09-28T22:23:45.671Z,12.60
2022-09-28T22:26:17.859Z,12.60
2022-09-28T22:28:47.779Z,12.60
2022-09-28T22:31:16.241Z,12.60
2022-09-28T22:33:44.470Z,12.60
2022-09-28T22:36:14.932Z,12.60
2022-09-28T22:38:44.652Z,12.60
2022-09-28T22:41:13.533Z,12.60
2022-09-28T22:43:41.361Z,12.60
2022-09-28T22:46:11.466Z,12.60
2022-09-28T22:48:39.605Z,12.60
2022-09-28T22:51:08.118Z,12.60
2022-09-28T22:53:36.530Z,12.60
2022-09-28T22:56:07.192Z,12.60
2022-09-28T22:58:36.071Z,12.60
2022-09-28T23:01:08.488Z,12.60
2022-09-28T23:03:36.912Z,12.60
2022-09-28T23:06:05.065Z,12.60
2022-09-28T23:08:33.168Z,12.60
2022-09-28T23:11:01.402Z,12.60
2022-09-28T23:13:31.143Z,12.50
2022-09-28T23:16:00.751Z,12.50
2022-09-28T23:18:30.829Z,12.50
2022-09-28T23:21:00.466Z,12.50
2022-09-28T23:23:28.957Z,12.50
2022-09-28T23:25:56.977Z,12.50
2022-09-28T23:28:26.555Z,12.50
2022-09-28T23:30:55.806Z,12.50
2022-09-28T23:33:23.774Z,12.50
2022-09-28T23:35:51.684Z,12.50
2022-09-28T23:38:19.518Z,12.50
2022-09-28T23:40:47.774Z,12.50
2022-09-28T23:43:15.888Z,12.50
2022-09-28T23:45:44.222Z,12.50
2022-09-28T23:48:15.130Z,12.50
2022-09-28T23:50:43.367Z,12.50
2022-09-28T23:53:11.946Z,12.50
2022-09-28T23:55:39.804Z,12.50
2022-09-28T23:58:07.764Z,12.50
